Koppie Airport

Jump to: basic info | weather | runways | comments

Related pages: nearby airports | nearby navaids | notams | map

Basic information (top)

Codes: 7IS5
Location: lon 42.121399, lat -88.378098, elev 890 ft / 271 m msl
Status: small_airport

Weather (top)

Current conditions for Dupage Airport 14nm (26km) SSE (rec'd 2014/08/01 02:52Z):

KDPA 010252Z 00000KT 10SM CLR 20/16 A3005 RMK AO2 SLP170 T02000156 53008

Airport forecast for Dupage Airport 14nm (26km) SSE (rec'd 2014/07/31 00:21Z):

TAF KDPA 312320Z 0100/0124 27011KT P6SM FEW060 
     FM010200 24004KT P6SM FEW250 
     FM010800 VRB03KT 5SM BR FEW250 
     FM011500 23006KT P6SM VCSH BKN050 PROB30 0117/0121 5SM TSRA BKN050CB

Runways (top)

N/S: 2,300 x 100 ft (701 x 30 m) — grass — not lighted

Latest comments (top)

No comments yet for Koppie Airport

More... (top)

See also NOTAMs and nearby airports and navaids, or visit the Koppie Airport page at the main OurAirports website..